Ride Results

FAW EEC Mon (13-04-2009)
Ride distance: 84.0 km

Outcomes - FAW EEC Mon (13-04-2009)
Division No. of Entries Retired / DNE Completed Withdrawn Ineligible V/O Percentage Completed
HW 9 - 5 2 - 2 55.56%
MW 20 - 17 - - 3 85.00%
LW 6 - 6 - - - 100.00%
JN 5 - 5 - - - 100.00%
Totals 40 - 33 2 - 5 82.50%
Results - FAW EEC Mon (13-04-2009)
No. Rider Horse Place Time Leg Speeds Total
Km/Hr
H/R bpm
Heavyweight
114 Matthew Sample Brookleigh Ricardo 1 (BC) 4:11:17 18.5, 22.2 20.06 40, 38, 43 (Avg:40)
102 Prutirat Serireongrith Shardell Prince Ali 2 5:19:00 16.0, 15.4 15.80 31, 42, 48 (Avg:45)
132 Sheik saeed Bin Maktoum Rowallan Cyprus 3 6:17:00 14.0, 12.5 13.37 33, 44, 42 (Avg:43)
140 Paul Lengronne Banjo Star 4 6:48:07 13.4, 11.2 12.35 35, 51, 51 (Avg:51)
109 Tony Bateman Sir Rook 5 7:16:16 11.0, 12.2 11.55 34, 45, 46 (Avg:45)
106 Daniel Williams Shardell Desert Drifter Lame L2 0:00:00 10.9, 11.6 - 36, 42, 49 (Avg:45)
108 Michael Chapman Bellarine Ben Widthdrawn L1 0:00:00 - - 36, 48 (Avg:48)
119 Johan De Bruto Bullarto Fiorelli Lame L1 0:00:00 16.8 - 43, 54 (Avg:54)
142 Jonnie White Die Kinder Spyder Widthdrawn L1 0:00:00 - - 32, 46 (Avg:46)
Middleweight
113 Brook Sample Brookleigh Excalibur 1 (BC) 4:11:16 18.5, 22.2 20.06 35, 43, 45 (Avg:44)
130 Gayle Holmes Captain's Creek Rupert 2 4:27:19 17.1, 21.3 18.85 33, 44, 50 (Avg:47)
129 Akhmed Pshunov Aloha Spartacus 2 4:27:19 17.1, 21.3 18.85 37, 48, 51 (Avg:49)
107 Shelley Chapman Touchwarr Kiara 4 5:22:30 15.2, 16.0 15.63 40, 49, 52 (Avg:50)
128 Ken Moir Eskdale Shakago Bae 5 5:36:55 15.6, 14.2 14.96 35, 42, 43 (Avg:42)
126 Renae Kuhn Splitters Creek Bundy 6 5:47:43 16.0, 12.9 14.49 28, 47, 49 (Avg:48)
122 Tami Parnell Churinga Desire 7 6:11:53 13.5, 13.6 13.55 35, 43, 51 (Avg:47)
104 Jess Langridge Leopard 8 6:47:57 13.3, 11.3 12.35 37, 43, 50 (Avg:46)
103 Caroline Fitzgerald Lanamere Roulette 9 6:51:20 12.4, 12.0 12.25 34, 43, 45 (Avg:44)
136 Harjinder Chand A'Landell Ko Do 10 6:52:35 12.6, 11.7 12.22 36, 47, 49 (Avg:48)
137 Danielle Cullen Hirstglen Olympus 11 6:52:37 12.6, 11.7 12.21 36, 49, 58 (Avg:53)
138 Kimberley Ryan Splendacrest Ulysses 12 7:07:43 12.6, 10.9 11.78 36, 44, 45 (Avg:44)
118 Simone Krahnen Ardai 13 7:15:00 11.9, 11.1 11.59 41, 41, 50 (Avg:45)
105 Shimpei Miyamoto Roobuk Tahlara 14 7:27:44 10.9, 11.6 11.26 32, 42, 51 (Avg:46)
134 Derek Armitage El Sarem Tylara 15 7:51:15 10.9, 10.3 10.69 36, 47, 40 (Avg:43)
110 Ben Caslick A'Landell Kantis 16 8:01:30 10.3, 10.6 10.47 32, 38, 43 (Avg:40)
143 Errol Watt Maioro Little Treasure 17 8:01:50 12.3, 8.7 10.46 45, 54, 43 (Avg:48)
120 Gerard Bou Splendacrest Sayirah Lame L1 0:00:00 16.8 - 31, 54 (Avg:54)
121 Ronan Cahill Stotfold Solitaire Lame L1 0:00:00 91.9 - 33, 32 (Avg:32)
135 Justin Otto Shamazan Kalisha Metabolics moderate L1 0:00:00 20.1 - 42, 70 (Avg:70)
Lightweight
123 Judy Battams Nangamba Alisaar 1 (BC) 4:15:35 18.5, 21.3 19.72 33, 47, 59 (Avg:53)
127 Sally Genninges Arinya Park Nazzerin 2 5:24:23 17.1, 13.9 15.54 36, 42, 53 (Avg:47)
139 Marcia Burger Johroy Custom Made 3 6:43:02 13.4, 11.5 12.51 35, 47, 50 (Avg:48)
125 Clio Rauch Shaah 4 7:07:15 12.6, 10.9 11.80 36, 41, 39 (Avg:40)
141 Andrea Mulhare Bashan Memphis 5 7:51:16 10.8, 10.5 10.69 39, 42, 43 (Avg:42)
112 Angela Hawks Sapphire 6 8:01:30 10.3, 10.6 10.47 39, 41, 42 (Avg:41)
Junior
117 Erin Krahnen La-Battist Shadow Fax 1 6:11:54 13.2, 13.8 13.55 38, 43, 50 (Avg:46)
124 Jamie Green Hirstglen Maybe 2 (BC) 6:14:46 13.1, 13.8 13.45 33, 48, 52 (Avg:50)
101 Lainie Zischke Glenewan Sprite 3 6:14:47 13.1, 13.8 13.45 38, 42, 45 (Avg:43)
115 Colleen Krahnen Kalkadoon Viva 4 7:15:13 11.9, 11.1 11.58 32, 38, 38 (Avg:38)
116 Connor Krahnen Kalkadoon Shalom 4 7:15:13 11.9, 11.1 11.58 39, 41, 43 (Avg:42)